Time;durP1;ratioP1;P1;durP2;ratioP2;P2;SDS_P1;SDS_P2;PMS_P1;PMS_P2;Temp;Humidity;BMP_temperature;BMP_pressure;BME280_temperature;BME280_humidity;BME280_pressure;Samples;Min_cycle;Max_cycle;Signal;HPM_P1;HPM_P2
2023/03/24 00:01:52;;;;;;;18.50;7.63;;;;;;;;;;5084147;28;20131;-66
2023/03/24 00:04:20;;;;;;;21.15;7.93;;;;;;;;;;5083416;28;20052;-67
2023/03/24 00:06:48;;;;;;;19.10;7.68;;;;;;;;;;5083162;28;20052;-66
2023/03/24 00:09:15;;;;;;;22.92;7.18;;;;;;;;;;5077275;28;20053;-66
2023/03/24 00:11:43;;;;;;;21.02;8.05;;;;;;;;;;5085804;28;20433;-66
2023/03/24 00:14:12;;;;;;;26.17;8.68;;;;;;;;;;5084536;28;20048;-67
2023/03/24 00:16:41;;;;;;;20.85;8.00;;;;;;;;;;5087053;28;20044;-66
2023/03/24 00:19:09;;;;;;;22.52;8.45;;;;;;;;;;5081684;28;20052;-66
2023/03/24 00:21:37;;;;;;;23.88;8.48;;;;;;;;;;5082539;28;20134;-66
2023/03/24 00:24:06;;;;;;;19.42;7.88;;;;;;;;;;5089324;28;20051;-67
2023/03/24 00:26:34;;;;;;;26.65;9.15;;;;;;;;;;5085642;28;20193;-67
2023/03/24 00:29:02;;;;;;;20.02;8.48;;;;;;;;;;5085984;28;20438;-67
2023/03/24 00:31:30;;;;;;;20.70;7.63;;;;;;;;;;5087999;28;20040;-67
2023/03/24 00:33:58;;;;;;;22.83;8.15;;;;;;;;;;5084114;28;20040;-67
2023/03/24 00:36:27;;;;;;;22.48;8.98;;;;;;;;;;5064155;28;20044;-67
2023/03/24 00:38:55;;;;;;;20.90;8.57;;;;;;;;;;5075899;28;20093;-68
2023/03/24 00:41:23;;;;;;;19.55;7.97;;;;;;;;;;5087894;28;20045;-68
2023/03/24 00:43:51;;;;;;;22.88;8.73;;;;;;;;;;5086088;28;20074;-69
2023/03/24 00:46:27;;;;;;;25.25;8.38;;;;;;;;;;5087885;28;20063;-69
2023/03/24 00:49:00;;;;;;;21.98;8.43;;;;;;;;;;5066219;28;20052;-69
2023/03/24 00:51:28;;;;;;;24.40;8.85;;;;;;;;;;5083128;28;20417;-69
2023/03/24 00:53:56;;;;;;;18.40;7.90;;;;;;;;;;5084067;28;20054;-69
2023/03/24 00:56:25;;;;;;;22.38;9.20;;;;;;;;;;5065168;28;20052;-69
2023/03/24 00:58:53;;;;;;;21.42;8.55;;;;;;;;;;5087212;28;20491;-68
2023/03/24 01:01:21;;;;;;;27.83;8.55;;;;;;;;;;5087271;28;20048;-68
2023/03/24 01:03:49;;;;;;;19.48;7.82;;;;;;;;;;5085821;28;20170;-69
2023/03/24 01:06:21;;;;;;;18.92;8.05;;;;;;;;;;5081382;28;20117;-69
2023/03/24 01:08:49;;;;;;;20.38;8.45;;;;;;;;;;5087124;28;20043;-69
2023/03/24 01:11:16;;;;;;;22.80;8.10;;;;;;;;;;5085002;28;20063;-69
2023/03/24 01:13:44;;;;;;;18.13;8.35;;;;;;;;;;5085469;28;20051;-68
2023/03/24 01:16:12;;;;;;;19.42;8.90;;;;;;;;;;5082756;28;20049;-68
2023/03/24 01:18:39;;;;;;;15.50;8.30;;;;;;;;;;5080557;28;20044;-69
2023/03/24 01:21:08;;;;;;;20.40;8.73;;;;;;;;;;5083464;28;20581;-69
2023/03/24 01:23:36;;;;;;;17.52;7.82;;;;;;;;;;5063771;28;20048;-69
2023/03/24 01:26:06;;;;;;;15.15;8.60;;;;;;;;;;5083163;28;20121;-69
2023/03/24 01:28:39;;;;;;;18.85;8.38;;;;;;;;;;5080568;28;20347;-69
2023/03/24 01:31:07;;;;;;;18.33;8.83;;;;;;;;;;5086121;28;20048;-69
2023/03/24 01:33:34;;;;;;;16.25;7.57;;;;;;;;;;5081038;28;20733;-68
2023/03/24 01:36:01;;;;;;;15.73;7.97;;;;;;;;;;5087336;28;20119;-69
2023/03/24 01:38:29;;;;;;;15.95;8.30;;;;;;;;;;5087075;28;20045;-69
2023/03/24 01:40:57;;;;;;;14.45;8.23;;;;;;;;;;5081063;28;20582;-68
2023/03/24 01:43:29;;;;;;;18.13;8.90;;;;;;;;;;5082543;28;20055;-68
2023/03/24 01:46:11;;;;;;;17.95;8.75;;;;;;;;;;5058655;28;20086;-68
2023/03/24 01:48:41;;;;;;;18.45;8.93;;;;;;;;;;5083948;28;20040;-69
2023/03/24 01:51:10;;;;;;;16.75;8.48;;;;;;;;;;5082892;28;20052;-68
2023/03/24 01:53:39;;;;;;;14.88;8.15;;;;;;;;;;5084001;28;20094;-68
2023/03/24 01:56:09;;;;;;;18.83;9.25;;;;;;;;;;5078082;28;20094;-68
2023/03/24 01:58:37;;;;;;;18.50;8.90;;;;;;;;;;5083932;28;20059;-69
2023/03/24 02:01:05;;;;;;;17.77;9.50;;;;;;;;;;5080471;28;20051;-69
2023/03/24 02:03:37;;;;;;;18.60;9.02;;;;;;;;;;5065571;28;20074;-69
2023/03/24 02:06:05;;;;;;;16.25;9.27;;;;;;;;;;5077341;28;20063;-69
2023/03/24 02:08:35;;;;;;;14.70;8.43;;;;;;;;;;5077919;28;20131;-69
2023/03/24 02:11:02;;;;;;;15.98;8.70;;;;;;;;;;5081655;28;20106;-68
2023/03/24 02:13:31;;;;;;;15.75;8.95;;;;;;;;;;5086731;28;20040;-69
2023/03/24 02:16:04;;;;;;;20.67;8.93;;;;;;;;;;5078459;28;20055;-68
2023/03/24 02:18:32;;;;;;;;;;;;;;;;;;5081502;28;20132;-69
2023/03/24 02:21:28;;;;;;;19.10;9.27;;;;;;;;;;5078110;28;20427;-69
2023/03/24 02:24:09;;;;;;;15.52;9.48;;;;;;;;;;5080536;28;20054;-69
2023/03/24 02:26:52;;;;;;;19.40;8.77;;;;;;;;;;5062306;28;20060;-69
2023/03/24 02:29:32;;;;;;;15.82;9.43;;;;;;;;;;5085337;28;20052;-69
2023/03/24 02:32:18;;;;;;;20.20;9.45;;;;;;;;;;5086948;28;20132;-70
2023/03/24 02:35:00;;;;;;;22.60;11.13;;;;;;;;;;5077901;28;20048;-70
2023/03/24 02:37:37;;;;;;;17.57;9.37;;;;;;;;;;5067550;28;20491;-70
2023/03/24 02:40:20;;;;;;;20.08;10.57;;;;;;;;;;5066325;28;20766;-70
2023/03/24 02:42:47;;;;;;;;;;;;;;;;;;5083157;28;20036;-70
2023/03/24 02:45:20;;;;;;;14.85;7.40;;;;;;;;;;5085189;28;19920;-70
2023/03/24 02:47:51;;;;;;;18.02;5.72;;;;;;;;;;5088273;28;20066;-70
2023/03/24 02:50:26;;;;;;;14.10;5.75;;;;;;;;;;5086223;28;20052;-69
2023/03/24 02:53:00;;;;;;;15.15;5.45;;;;;;;;;;5090131;28;20051;-69
2023/03/24 02:55:31;;;;;;;14.10;4.13;;;;;;;;;;5084980;28;20049;-69
2023/03/24 02:58:02;;;;;;;10.90;3.75;;;;;;;;;;5088239;28;20066;-69
2023/03/24 03:00:32;;;;;;;16.70;3.38;;;;;;;;;;5087500;28;20076;-68
2023/03/24 03:03:02;;;;;;;12.07;3.35;;;;;;;;;;5072072;28;20071;-68
2023/03/24 03:05:32;;;;;;;17.35;3.15;;;;;;;;;;5086218;28;20052;-67
2023/03/24 03:08:00;;;;;;;13.68;3.05;;;;;;;;;;5080330;28;20051;-67
2023/03/24 03:10:31;;;;;;;22.13;3.25;;;;;;;;;;5085064;28;20044;-67
2023/03/24 03:13:00;;;;;;;15.75;2.85;;;;;;;;;;5060754;28;20052;-66
2023/03/24 03:15:29;;;;;;;19.08;2.90;;;;;;;;;;5086245;28;20054;-67
2023/03/24 03:18:01;;;;;;;20.55;2.88;;;;;;;;;;5088958;28;20052;-67
2023/03/24 03:20:33;;;;;;;15.75;2.75;;;;;;;;;;5081146;28;20070;-67
2023/03/24 03:23:02;;;;;;;23.27;4.25;;;;;;;;;;5084323;28;20044;-67
2023/03/24 03:25:33;;;;;;;18.23;3.28;;;;;;;;;;5089397;28;20059;-67
2023/03/24 03:28:02;;;;;;;18.48;2.50;;;;;;;;;;5064959;28;20059;-67
2023/03/24 03:30:33;;;;;;;30.05;4.18;;;;;;;;;;5084422;28;20585;-67
2023/03/24 03:33:03;;;;;;;19.73;2.60;;;;;;;;;;5086752;28;20052;-67
2023/03/24 03:35:34;;;;;;;21.27;2.70;;;;;;;;;;5085571;28;20051;-67
2023/03/24 03:38:08;;;;;;;16.35;3.28;;;;;;;;;;5085843;28;20511;-67
2023/03/24 03:40:38;;;;;;;22.20;2.70;;;;;;;;;;5086390;28;20040;-67
2023/03/24 03:43:06;;;;;;;20.38;2.30;;;;;;;;;;5079154;28;20135;-66
2023/03/24 03:45:34;;;;;;;20.92;2.58;;;;;;;;;;5086485;28;20052;-67
2023/03/24 03:48:02;;;;;;;27.40;2.60;;;;;;;;;;5085230;28;20185;-66
2023/03/24 03:50:29;;;;;;;25.23;4.10;;;;;;;;;;5086679;28;20046;-66
2023/03/24 03:52:57;;;;;;;19.40;3.25;;;;;;;;;;5088485;28;20058;-67
2023/03/24 03:55:24;;;;;;;21.25;2.80;;;;;;;;;;5088562;28;20058;-67
2023/03/24 03:57:53;;;;;;;24.13;3.15;;;;;;;;;;5062931;28;20044;-67
2023/03/24 04:00:21;;;;;;;23.15;2.90;;;;;;;;;;5085143;28;20066;-66
2023/03/24 04:02:57;;;;;;;22.88;3.38;;;;;;;;;;5089252;28;20117;-67
2023/03/24 04:05:28;;;;;;;29.33;4.10;;;;;;;;;;5087893;28;20055;-67
2023/03/24 04:08:13;;;;;;;20.60;2.83;;;;;;;;;;5081195;28;20047;-67
2023/03/24 04:10:49;;;;;;;27.25;2.63;;;;;;;;;;5079951;28;20048;-67
2023/03/24 04:13:20;;;;;;;25.92;3.08;;;;;;;;;;5087936;28;20084;-67
2023/03/24 04:15:53;;;;;;;29.50;3.45;;;;;;;;;;5084403;28;20786;-67
2023/03/24 04:18:27;;;;;;;25.77;2.60;;;;;;;;;;5084740;28;20048;-67
2023/03/24 04:21:01;;;;;;;25.25;2.88;;;;;;;;;;5082163;28;20055;-67
2023/03/24 04:23:31;;;;;;;22.77;2.88;;;;;;;;;;5081448;28;20040;-67
2023/03/24 04:26:05;;;;;;;20.83;2.67;;;;;;;;;;5088357;28;20498;-66
2023/03/24 04:28:39;;;;;;;21.40;3.15;;;;;;;;;;5066257;28;20052;-68
2023/03/24 04:31:06;;;;;;;;;;;;;;;;;;5071267;28;20056;-67
2023/03/24 04:33:38;;;;;;;25.98;3.35;;;;;;;;;;5086240;28;19920;-66
2023/03/24 04:36:17;;;;;;;18.13;2.35;;;;;;;;;;5083633;28;20502;-66
2023/03/24 04:38:47;;;;;;;23.63;3.38;;;;;;;;;;5088062;28;20055;-66
2023/03/24 04:41:16;;;;;;;29.48;3.83;;;;;;;;;;5078418;28;20051;-66
2023/03/24 04:43:46;;;;;;;25.95;3.95;;;;;;;;;;5087741;28;20048;-67
2023/03/24 04:46:16;;;;;;;32.33;3.55;;;;;;;;;;5058645;28;20070;-66
2023/03/24 04:48:44;;;;;;;27.20;3.20;;;;;;;;;;5076514;28;20083;-66
2023/03/24 04:51:12;;;;;;;24.38;2.92;;;;;;;;;;5084881;28;20127;-67
2023/03/24 04:53:39;;;;;;;22.23;3.38;;;;;;;;;;5083895;28;20051;-66
2023/03/24 04:56:15;;;;;;;19.75;3.30;;;;;;;;;;5081741;28;20403;-66
2023/03/24 04:58:43;;;;;;;23.10;3.65;;;;;;;;;;5086905;28;20051;-66
2023/03/24 05:01:12;;;;;;;23.45;3.70;;;;;;;;;;5081633;28;20052;-66
2023/03/24 05:03:40;;;;;;;27.90;2.78;;;;;;;;;;5077351;28;20048;-66
2023/03/24 05:06:09;;;;;;;26.40;3.60;;;;;;;;;;5084747;28;20135;-66
2023/03/24 05:08:36;;;;;;;28.73;4.38;;;;;;;;;;5081729;28;20044;-66
2023/03/24 05:11:03;;;;;;;25.42;3.78;;;;;;;;;;5086098;28;20040;-66
2023/03/24 05:13:31;;;;;;;25.85;3.33;;;;;;;;;;5085432;28;20052;-66
2023/03/24 05:15:58;;;;;;;24.90;3.38;;;;;;;;;;5064134;28;20090;-66
2023/03/24 05:18:27;;;;;;;24.20;3.67;;;;;;;;;;5086455;28;20533;-66
2023/03/24 05:20:54;;;;;;;32.42;4.20;;;;;;;;;;5083663;28;20052;-66
2023/03/24 05:23:21;;;;;;;21.95;3.45;;;;;;;;;;5082738;28;20226;-66
2023/03/24 05:25:49;;;;;;;22.90;3.47;;;;;;;;;;5083113;28;20055;-66
2023/03/24 05:28:16;;;;;;;24.00;3.42;;;;;;;;;;5084495;28;20561;-66
2023/03/24 05:30:43;;;;;;;28.52;3.63;;;;;;;;;;5086431;28;20051;-66
2023/03/24 05:33:10;;;;;;;29.15;3.95;;;;;;;;;;5083262;28;20048;-66
2023/03/24 05:35:39;;;;;;;23.02;3.50;;;;;;;;;;5081584;28;20075;-66
2023/03/24 05:38:06;;;;;;;25.10;3.47;;;;;;;;;;5079371;28;20173;-66
2023/03/24 05:40:34;;;;;;;25.08;3.25;;;;;;;;;;5078108;28;20044;-66
2023/03/24 05:43:01;;;;;;;22.42;2.90;;;;;;;;;;5081197;28;20052;-66
2023/03/24 05:45:29;;;;;;;23.77;3.70;;;;;;;;;;5083133;28;20047;-66
2023/03/24 05:47:56;;;;;;;26.20;4.10;;;;;;;;;;5081474;28;20044;-66
2023/03/24 05:50:23;;;;;;;21.65;3.53;;;;;;;;;;5064463;28;20138;-66
2023/03/24 05:52:52;;;;;;;23.65;3.42;;;;;;;;;;5083138;28;20126;-66
2023/03/24 05:55:20;;;;;;;28.08;3.58;;;;;;;;;;5084327;28;20534;-66
2023/03/24 05:57:48;;;;;;;26.08;3.35;;;;;;;;;;5078284;28;20117;-66
2023/03/24 06:00:16;;;;;;;23.02;2.67;;;;;;;;;;5085982;28;20097;-66
2023/03/24 06:02:44;;;;;;;17.52;2.83;;;;;;;;;;5082565;28;20040;-66
2023/03/24 06:05:11;;;;;;;16.92;3.40;;;;;;;;;;5080795;28;20400;-66
2023/03/24 06:07:41;;;;;;;22.02;2.95;;;;;;;;;;5082713;28;20050;-66
2023/03/24 06:10:10;;;;;;;22.10;3.08;;;;;;;;;;5081675;28;20071;-66
2023/03/24 06:12:37;;;;;;;17.02;3.00;;;;;;;;;;5082800;28;20067;-66
2023/03/24 06:15:05;;;;;;;25.80;3.92;;;;;;;;;;5084108;28;20055;-66
2023/03/24 06:17:32;;;;;;;21.00;3.30;;;;;;;;;;5086682;28;20131;-66
2023/03/24 06:20:04;;;;;;;22.98;3.53;;;;;;;;;;5084110;28;20106;-66
2023/03/24 06:22:32;;;;;;;21.60;3.30;;;;;;;;;;5079690;28;20415;-66
2023/03/24 06:25:01;;;;;;;21.75;2.78;;;;;;;;;;5086016;28;20064;-66
2023/03/24 06:27:30;;;;;;;28.77;3.88;;;;;;;;;;5086416;28;20070;-66
2023/03/24 06:29:57;;;;;;;28.20;3.25;;;;;;;;;;5084691;28;20048;-66
2023/03/24 06:32:24;;;;;;;27.58;3.70;;;;;;;;;;5080172;28;20057;-65
2023/03/24 06:34:51;;;;;;;31.30;4.00;;;;;;;;;;5080868;28;20050;-66
2023/03/24 06:37:19;;;;;;;21.85;3.05;;;;;;;;;;5087845;28;20074;-66
2023/03/24 06:39:46;;;;;;;28.73;3.15;;;;;;;;;;5085120;28;20085;-65
2023/03/24 06:42:14;;;;;;;35.70;5.00;;;;;;;;;;5082660;28;20102;-66
2023/03/24 06:44:43;;;;;;;29.10;3.88;;;;;;;;;;5086404;28;20063;-66
2023/03/24 06:47:10;;;;;;;35.83;3.67;;;;;;;;;;5087353;28;20075;-65
2023/03/24 06:49:38;;;;;;;26.75;4.30;;;;;;;;;;5089701;28;20430;-67
2023/03/24 06:52:05;;;;;;;23.23;3.95;;;;;;;;;;5069938;28;20056;-65
2023/03/24 06:54:32;;;;;;;23.92;3.33;;;;;;;;;;5086235;28;20149;-66
2023/03/24 06:56:59;;;;;;;31.70;4.28;;;;;;;;;;5089122;28;20055;-66
2023/03/24 06:59:27;;;;;;;35.13;4.82;;;;;;;;;;5079455;28;20055;-66
2023/03/24 07:01:56;;;;;;;29.50;4.35;;;;;;;;;;5081850;28;20501;-65
2023/03/24 07:04:24;;;;;;;35.25;3.67;;;;;;;;;;5089780;28;20090;-66
2023/03/24 07:06:51;;;;;;;24.08;3.67;;;;;;;;;;5084590;28;20060;-66
2023/03/24 07:09:19;;;;;;;29.48;3.53;;;;;;;;;;5068562;28;20051;-66
2023/03/24 07:11:46;;;;;;;23.52;3.92;;;;;;;;;;5086848;28;20581;-66
2023/03/24 07:14:13;;;;;;;37.08;4.45;;;;;;;;;;5079700;28;20407;-66
2023/03/24 07:16:41;;;;;;;29.23;3.50;;;;;;;;;;5086576;28;20059;-66
2023/03/24 07:19:09;;;;;;;28.60;4.43;;;;;;;;;;5088238;28;20036;-66
2023/03/24 07:21:36;;;;;;;30.30;4.03;;;;;;;;;;5086696;28;20051;-67
2023/03/24 07:24:04;;;;;;;33.67;3.92;;;;;;;;;;5079615;28;20104;-67
2023/03/24 07:26:31;;;;;;;39.00;4.15;;;;;;;;;;5086673;28;20048;-66
2023/03/24 07:28:58;;;;;;;35.30;4.10;;;;;;;;;;5076672;28;20049;-66
2023/03/24 07:31:26;;;;;;;28.52;4.30;;;;;;;;;;5082228;28;20052;-66
2023/03/24 07:33:53;;;;;;;30.05;4.30;;;;;;;;;;5086933;28;20055;-66
2023/03/24 07:36:22;;;;;;;29.77;4.45;;;;;;;;;;5085788;28;21540;-66
2023/03/24 07:38:49;;;;;;;35.00;4.88;;;;;;;;;;5083689;28;20514;-66
2023/03/24 07:41:16;;;;;;;42.30;4.82;;;;;;;;;;5084665;28;20052;-66
2023/03/24 07:43:43;;;;;;;33.45;4.72;;;;;;;;;;5085018;28;20047;-66
2023/03/24 07:46:11;;;;;;;36.17;4.80;;;;;;;;;;5084918;28;20051;-66
2023/03/24 07:48:38;;;;;;;29.15;3.90;;;;;;;;;;5088924;28;20044;-66
2023/03/24 07:51:05;;;;;;;42.42;4.85;;;;;;;;;;5081199;28;20051;-66
2023/03/24 07:53:34;;;;;;;29.30;4.57;;;;;;;;;;5083304;28;20052;-66
2023/03/24 07:56:02;;;;;;;30.85;4.55;;;;;;;;;;5087923;28;20048;-66
2023/03/24 07:58:30;;;;;;;32.17;5.32;;;;;;;;;;5087057;28;20055;-66
2023/03/24 08:00:57;;;;;;;31.17;4.43;;;;;;;;;;5086748;28;20040;-66
2023/03/24 08:03:26;;;;;;;35.55;4.88;;;;;;;;;;5086049;28;20537;-66
2023/03/24 08:05:53;;;;;;;29.90;4.50;;;;;;;;;;5087907;28;20520;-66
2023/03/24 08:08:21;;;;;;;34.88;4.43;;;;;;;;;;5087265;28;20097;-66
2023/03/24 08:10:50;;;;;;;33.55;4.28;;;;;;;;;;5083957;28;20344;-66
2023/03/24 08:13:17;;;;;;;36.85;5.25;;;;;;;;;;5085506;28;20495;-66
2023/03/24 08:15:45;;;;;;;42.40;4.55;;;;;;;;;;5082104;28;20039;-66
2023/03/24 08:18:12;;;;;;;28.27;4.35;;;;;;;;;;5066096;28;20051;-66
2023/03/24 08:20:39;;;;;;;35.00;4.10;;;;;;;;;;5080933;28;20043;-66
2023/03/24 08:23:07;;;;;;;33.90;4.03;;;;;;;;;;5085352;28;20048;-66
2023/03/24 08:25:35;;;;;;;37.50;4.78;;;;;;;;;;5084915;28;20044;-66
2023/03/24 08:28:04;;;;;;;35.33;4.45;;;;;;;;;;5083701;28;20045;-66
2023/03/24 08:30:32;;;;;;;31.58;5.75;;;;;;;;;;5065503;28;20044;-66
2023/03/24 08:33:00;;;;;;;36.67;5.43;;;;;;;;;;5079834;28;20053;-67
2023/03/24 08:35:30;;;;;;;33.63;4.38;;;;;;;;;;5084360;28;20040;-66
2023/03/24 08:37:58;;;;;;;36.42;5.00;;;;;;;;;;5083125;28;20105;-66
2023/03/24 08:40:25;;;;;;;29.60;4.78;;;;;;;;;;5085980;28;20518;-66
2023/03/24 08:42:54;;;;;;;30.40;4.72;;;;;;;;;;5076960;28;20051;-66
2023/03/24 08:45:26;;;;;;;35.65;5.15;;;;;;;;;;5086406;28;20131;-67
2023/03/24 08:47:54;;;;;;;36.03;5.18;;;;;;;;;;5080172;28;20484;-67
2023/03/24 08:50:22;;;;;;;34.05;4.50;;;;;;;;;;5086399;28;20487;-66
2023/03/24 08:52:50;;;;;;;27.48;4.45;;;;;;;;;;5080317;28;20498;-66
2023/03/24 08:55:18;;;;;;;34.45;4.80;;;;;;;;;;5085239;28;20765;-66
2023/03/24 08:57:45;;;;;;;28.38;4.28;;;;;;;;;;5085642;28;20051;-66
2023/03/24 09:00:14;;;;;;;28.50;5.22;;;;;;;;;;5085524;28;20044;-66
2023/03/24 09:02:43;;;;;;;35.38;4.70;;;;;;;;;;5083841;28;20513;-66
2023/03/24 09:05:11;;;;;;;29.83;5.18;;;;;;;;;;5044449;28;20060;-67
2023/03/24 09:07:38;;;;;;;35.80;4.60;;;;;;;;;;5045753;28;20107;-67
2023/03/24 09:10:06;;;;;;;33.83;4.13;;;;;;;;;;5042838;28;20496;-66
2023/03/24 09:12:34;;;;;;;27.10;3.53;;;;;;;;;;5045194;28;20055;-66
2023/03/24 09:15:01;;;;;;;28.33;4.85;;;;;;;;;;5044686;28;20135;-66
2023/03/24 09:17:28;;;;;;;28.88;4.65;;;;;;;;;;5045441;28;20052;-67
2023/03/24 09:19:57;;;;;;;28.55;3.85;;;;;;;;;;5044944;28;20270;-66
2023/03/24 09:22:25;;;;;;;25.75;4.13;;;;;;;;;;5043565;28;20056;-66
2023/03/24 09:24:52;;;;;;;28.80;3.47;;;;;;;;;;5045764;28;20055;-66
2023/03/24 09:27:19;;;;;;;36.55;4.80;;;;;;;;;;5043673;28;20057;-66
2023/03/24 09:29:46;;;;;;;27.45;3.65;;;;;;;;;;5046524;28;20041;-66
2023/03/24 09:32:14;;;;;;;25.02;3.70;;;;;;;;;;5043822;28;20044;-67
2023/03/24 09:34:41;;;;;;;24.33;4.72;;;;;;;;;;5047098;28;20136;-67
2023/03/24 09:37:11;;;;;;;24.30;3.83;;;;;;;;;;5045148;28;20053;-66
2023/03/24 09:39:39;;;;;;;35.72;5.05;;;;;;;;;;5044719;28;20045;-66
2023/03/24 09:42:07;;;;;;;28.65;4.45;;;;;;;;;;5043156;28;20236;-66
2023/03/24 09:44:37;;;;;;;23.98;4.20;;;;;;;;;;5045360;28;20451;-67
2023/03/24 09:47:10;;;;;;;32.50;4.63;;;;;;;;;;5045476;28;20049;-66
2023/03/24 09:49:39;;;;;;;27.25;4.63;;;;;;;;;;5050329;28;20159;-66
2023/03/24 09:52:07;;;;;;;23.38;3.58;;;;;;;;;;5044518;28;20053;-66
2023/03/24 09:54:41;;;;;;;22.50;4.43;;;;;;;;;;5049322;28;20451;-66
2023/03/24 09:57:15;;;;;;;26.08;4.55;;;;;;;;;;5049545;28;20045;-67
2023/03/24 09:59:42;;;;;;;19.75;3.92;;;;;;;;;;5050017;28;20041;-66
2023/03/24 10:02:12;;;;;;;26.88;4.80;;;;;;;;;;5051887;28;20053;-67
2023/03/24 10:04:39;;;;;;;26.98;4.15;;;;;;;;;;5069458;28;20495;-67
2023/03/24 10:07:08;;;;;;;39.25;4.57;;;;;;;;;;5086793;28;20076;-66
2023/03/24 10:09:37;;;;;;;28.15;3.67;;;;;;;;;;5087129;28;20056;-66
2023/03/24 10:12:17;;;;;;;20.73;4.15;;;;;;;;;;5080143;28;20052;-66
2023/03/24 10:14:48;;;;;;;24.42;3.83;;;;;;;;;;5085373;28;20047;-66
2023/03/24 10:17:19;;;;;;;21.90;3.85;;;;;;;;;;5085887;28;20079;-67
2023/03/24 10:19:49;;;;;;;27.25;4.57;;;;;;;;;;5087622;28;20407;-66
2023/03/24 10:22:19;;;;;;;26.45;4.00;;;;;;;;;;5081238;28;20613;-67
2023/03/24 10:24:51;;;;;;;29.50;4.28;;;;;;;;;;5068582;28;20044;-66
2023/03/24 10:27:23;;;;;;;23.52;4.18;;;;;;;;;;5081438;28;20059;-67
2023/03/24 10:29:53;;;;;;;27.73;4.90;;;;;;;;;;5083666;28;20055;-67
2023/03/24 10:32:21;;;;;;;27.73;4.43;;;;;;;;;;5088008;28;20044;-66
2023/03/24 10:34:50;;;;;;;31.73;4.47;;;;;;;;;;5066847;28;20063;-67
2023/03/24 10:37:17;;;;;;;22.65;4.07;;;;;;;;;;5068359;28;20795;-67
2023/03/24 10:39:44;;;;;;;33.00;5.03;;;;;;;;;;5081296;28;20044;-67
2023/03/24 10:42:17;;;;;;;31.98;3.58;;;;;;;;;;5079136;28;20045;-66
2023/03/24 10:44:44;;;;;;;27.98;4.43;;;;;;;;;;5070868;28;20047;-67
2023/03/24 10:47:14;;;;;;;29.60;3.92;;;;;;;;;;5090298;28;20052;-66
2023/03/24 10:49:52;;;;;;;29.92;4.35;;;;;;;;;;5084326;28;20056;-67
2023/03/24 10:52:20;;;;;;;24.40;4.00;;;;;;;;;;5084035;28;20149;-67
2023/03/24 10:54:55;;;;;;;29.70;4.80;;;;;;;;;;5084032;28;20052;-67
2023/03/24 10:57:24;;;;;;;22.52;3.80;;;;;;;;;;5087226;28;20044;-67
2023/03/24 10:59:54;;;;;;;28.88;4.50;;;;;;;;;;5089001;28;20407;-69
2023/03/24 11:02:24;;;;;;;24.70;4.30;;;;;;;;;;5088018;28;20051;-69
2023/03/24 11:04:53;;;;;;;25.52;3.75;;;;;;;;;;5082835;28;20056;-69
2023/03/24 11:07:22;;;;;;;19.75;2.97;;;;;;;;;;5086024;28;20076;-69
2023/03/24 11:09:58;;;;;;;21.15;3.42;;;;;;;;;;5089475;28;20052;-69
2023/03/24 11:12:38;;;;;;;27.00;3.72;;;;;;;;;;5088664;28;20050;-69
2023/03/24 11:15:16;;;;;;;23.10;3.60;;;;;;;;;;5069545;28;20057;-69
2023/03/24 11:17:44;;;;;;;41.70;4.53;;;;;;;;;;5084459;28;20051;-69
2023/03/24 11:20:17;;;;;;;24.50;3.50;;;;;;;;;;5084470;28;20048;-69
2023/03/24 11:22:44;;;;;;;;;;;;;;;;;;5077387;28;20040;-70
2023/03/24 11:25:13;;;;;;;20.65;3.75;;;;;;;;;;5081758;28;20295;-69
2023/03/24 11:27:43;;;;;;;32.17;5.00;;;;;;;;;;5086387;28;20067;-70
2023/03/24 11:30:13;;;;;;;23.35;3.53;;;;;;;;;;5082555;28;20058;-70
2023/03/24 11:32:46;;;;;;;30.50;3.55;;;;;;;;;;5083915;28;20040;-69
2023/03/24 11:35:17;;;;;;;24.35;3.75;;;;;;;;;;5087393;28;20475;-70
2023/03/24 11:37:47;;;;;;;21.85;4.18;;;;;;;;;;5083411;28;20048;-70
2023/03/24 11:40:19;;;;;;;27.23;4.10;;;;;;;;;;5085507;28;20043;-70
2023/03/24 11:42:49;;;;;;;22.92;3.35;;;;;;;;;;5084346;28;20687;-70
2023/03/24 11:45:26;;;;;;;21.35;3.53;;;;;;;;;;5086195;28;20632;-70
2023/03/24 11:47:55;;;;;;;19.52;2.97;;;;;;;;;;5086796;28;20418;-70
2023/03/24 11:50:25;;;;;;;20.05;3.58;;;;;;;;;;5081903;28;20117;-70
2023/03/24 11:52:54;;;;;;;19.08;3.45;;;;;;;;;;5087877;28;20051;-70
2023/03/24 11:55:24;;;;;;;21.38;3.03;;;;;;;;;;5068608;28;20052;-70
2023/03/24 11:57:57;;;;;;;21.02;3.28;;;;;;;;;;5086794;28;20048;-70
2023/03/24 12:00:26;;;;;;;22.70;3.53;;;;;;;;;;5066691;28;20138;-70
2023/03/24 12:03:02;;;;;;;21.50;3.90;;;;;;;;;;5084040;28;20401;-70
2023/03/24 12:05:33;;;;;;;19.55;3.10;;;;;;;;;;5085152;28;20499;-70
2023/03/24 12:08:15;;;;;;;19.55;3.55;;;;;;;;;;5086227;28;20048;-70
2023/03/24 12:10:54;;;;;;;20.27;4.15;;;;;;;;;;5065253;28;20479;-70
2023/03/24 12:13:32;;;;;;;15.55;3.10;;;;;;;;;;5083105;28;20062;-70
2023/03/24 12:16:01;;;;;;;18.60;3.08;;;;;;;;;;5080279;28;20056;-70
2023/03/24 12:18:37;;;;;;;18.55;3.25;;;;;;;;;;5082248;28;20059;-70
2023/03/24 12:21:09;;;;;;;19.45;3.88;;;;;;;;;;5074173;28;20102;-70
2023/03/24 12:23:40;;;;;;;27.05;3.13;;;;;;;;;;5083303;28;20068;-70
2023/03/24 12:26:10;;;;;;;22.25;3.53;;;;;;;;;;5081400;28;20150;-70
2023/03/24 12:28:45;;;;;;;13.75;2.53;;;;;;;;;;5077238;28;20131;-70
2023/03/24 12:31:19;;;;;;;14.85;3.03;;;;;;;;;;5081098;28;20048;-70
2023/03/24 12:33:51;;;;;;;15.18;3.45;;;;;;;;;;5062492;28;20139;-70
2023/03/24 12:36:23;;;;;;;21.80;3.22;;;;;;;;;;5082054;28;20064;-70
2023/03/24 12:38:57;;;;;;;18.88;4.03;;;;;;;;;;5085530;28;20047;-70
2023/03/24 12:41:34;;;;;;;17.83;3.40;;;;;;;;;;5067567;28;20056;-70
2023/03/24 12:44:13;;;;;;;16.90;3.20;;;;;;;;;;5083743;28;20043;-76
2023/03/24 12:46:43;;;;;;;19.10;3.80;;;;;;;;;;5080838;28;20058;-75
2023/03/24 12:49:20;;;;;;;22.92;3.40;;;;;;;;;;5085102;28;20055;-76
2023/03/24 12:51:50;;;;;;;18.73;3.13;;;;;;;;;;5087991;28;20040;-75
2023/03/24 12:54:23;;;;;;;13.27;2.97;;;;;;;;;;5085233;28;20059;-75
2023/03/24 12:56:52;;;;;;;17.40;3.58;;;;;;;;;;5087618;28;20074;-76
2023/03/24 12:59:22;;;;;;;16.13;2.88;;;;;;;;;;5064638;28;20585;-75
2023/03/24 13:01:52;;;;;;;20.40;3.13;;;;;;;;;;5086278;28;20043;-75
2023/03/24 13:04:21;;;;;;;17.02;3.17;;;;;;;;;;5062788;28;20060;-75
2023/03/24 13:06:52;;;;;;;19.55;3.05;;;;;;;;;;5085830;28;20079;-75
2023/03/24 13:09:24;;;;;;;20.33;3.90;;;;;;;;;;5084202;28;20048;-75
2023/03/24 13:11:56;;;;;;;17.35;3.47;;;;;;;;;;5083266;28;20710;-76
2023/03/24 13:14:27;;;;;;;16.77;3.45;;;;;;;;;;5080956;28;20059;-76
2023/03/24 13:16:57;;;;;;;17.52;3.67;;;;;;;;;;5065244;28;20406;-75
2023/03/24 13:19:25;;;;;;;20.27;3.03;;;;;;;;;;5079647;28;20054;-75
2023/03/24 13:21:54;;;;;;;20.08;3.50;;;;;;;;;;5085176;28;20048;-75
2023/03/24 13:24:24;;;;;;;17.77;3.28;;;;;;;;;;5057713;28;20056;-75
2023/03/24 13:26:56;;;;;;;22.60;3.92;;;;;;;;;;5082194;28;20113;-75
2023/03/24 13:29:33;;;;;;;21.70;3.88;;;;;;;;;;5075095;28;20060;-75
2023/03/24 13:32:04;;;;;;;16.80;3.10;;;;;;;;;;5078222;28;20403;-75
2023/03/24 13:34:33;;;;;;;18.98;3.53;;;;;;;;;;5076931;28;20049;-75
2023/03/24 13:37:02;;;;;;;22.63;3.63;;;;;;;;;;5074593;28;20063;-75
2023/03/24 13:39:30;;;;;;;24.38;3.47;;;;;;;;;;5060749;28;20052;-75
2023/03/24 13:41:59;;;;;;;19.83;3.03;;;;;;;;;;5077711;28;20048;-75
2023/03/24 13:44:28;;;;;;;25.58;4.00;;;;;;;;;;5066665;28;20052;-75
2023/03/24 13:47:09;;;;;;;23.65;3.55;;;;;;;;;;5079860;28;20073;-75
2023/03/24 13:49:37;;;;;;;22.42;3.40;;;;;;;;;;5062487;28;20059;-75
2023/03/24 13:52:05;;;;;;;23.88;3.63;;;;;;;;;;5087482;28;20051;-75
2023/03/24 13:54:36;;;;;;;19.58;3.60;;;;;;;;;;5079402;28;20546;-75
2023/03/24 13:57:05;;;;;;;28.27;3.72;;;;;;;;;;5079354;28;20487;-75
2023/03/24 13:59:33;;;;;;;18.55;3.30;;;;;;;;;;5079569;28;20161;-75
2023/03/24 14:02:17;;;;;;;23.85;3.72;;;;;;;;;;5081414;28;20045;-75
2023/03/24 14:04:45;;;;;;;22.13;3.85;;;;;;;;;;5084264;28;20139;-75
2023/03/24 14:07:30;;;;;;;21.50;3.30;;;;;;;;;;5081313;28;20144;-75
2023/03/24 14:09:58;;;;;;;22.00;3.28;;;;;;;;;;5077701;28;20048;-75
2023/03/24 14:12:25;;;;;;;26.02;4.60;;;;;;;;;;5086218;28;20383;-75
2023/03/24 14:15:11;;;;;;;16.13;2.92;;;;;;;;;;5078487;28;20209;-75
2023/03/24 14:17:43;;;;;;;18.85;3.00;;;;;;;;;;5078279;28;20052;-75
2023/03/24 14:20:24;;;;;;;14.20;2.67;;;;;;;;;;5075392;28;20048;-75
2023/03/24 14:22:52;;;;;;;19.95;2.88;;;;;;;;;;5080088;28;20083;-75
2023/03/24 14:25:23;;;;;;;23.38;3.40;;;;;;;;;;5077098;28;20106;-75
2023/03/24 14:27:51;;;;;;;15.63;3.53;;;;;;;;;;5079973;28;20140;-75
2023/03/24 14:30:21;;;;;;;20.02;3.00;;;;;;;;;;5075867;28;20468;-75
2023/03/24 14:32:52;;;;;;;17.10;2.53;;;;;;;;;;5087186;28;20052;-75
2023/03/24 14:35:22;;;;;;;20.08;3.33;;;;;;;;;;5081747;28;20052;-75
2023/03/24 14:37:52;;;;;;;18.15;2.80;;;;;;;;;;5085955;28;20141;-75
2023/03/24 14:40:27;;;;;;;17.02;2.78;;;;;;;;;;5085035;28;20583;-75
2023/03/24 14:42:56;;;;;;;19.33;3.00;;;;;;;;;;5084639;28;20122;-75
2023/03/24 14:45:44;;;;;;;13.32;2.85;;;;;;;;;;5080143;28;20083;-75
2023/03/24 14:48:24;;;;;;;16.58;3.03;;;;;;;;;;5073569;28;20064;-75